Home > Products > Valid Products > MTR

000
SAUS45 KGGW 040550
MTRJDN
METAR KJDN 040548Z AUTO 04016G22KT 19/03 A2981 RMK AO1 PRESFR SLP081
T01890028 10272 20189 50000





000
SAUS45 KGGW 040449
MTRJDN
METAR KJDN 040448Z AUTO 05012KT 19/04 A2984 RMK AO1 SLP090 T01940039





000
SAUS45 KGGW 040349
MTRJDN
METAR KJDN 040348Z AUTO 03012KT 20/04 A2984 RMK AO1 SLP095 T02000044





000
SAUS45 KGGW 040249
MTRJDN
METAR KJDN 040248Z AUTO 04015G21KT 21/04 A2981 RMK AO1 SLP083
T02110044 50011





000
SAUS45 KGGW 040149
MTRJDN
METAR KJDN 040148Z AUTO 03011KT 23/06 A2981 RMK AO1 SLP082 T02330056





000
SAUS45 KGGW 040149
MTRJDN
METAR KJDN 040148Z AUTO 03011KT 23/06 A2981 RMK AO1 SLP082 T02330056





000
SAUS45 KGGW 040049
MTRJDN
METAR KJDN 040048Z AUTO 02010KT 25/06 A2978 RMK AO1 SLP076 T02500056





000
SAUS45 KGGW 032349
MTRJDN
METAR KJDN 032348Z AUTO 05011KT 27/06 A2977 RMK AO1 SLP069 T02670056
10278 20233 55009





000
SAUS45 KGGW 032249
MTRJDN
METAR KJDN 032248Z AUTO 03012G19KT 26/06 A2977 RMK AO1 SLP067
T02610056





000
SAUS45 KGGW 032149
MTRJDN
METAR KJDN 032148Z AUTO 02010KT 27/06 A2979 RMK AO1 SLP072 T02670061





000
SAUS45 KGGW 032049
MTRJDN
METAR KJDN 032048Z AUTO 02010KT 25/06 A2980 RMK AO1 SLP076 T02500061
58006





000
SAUS45 KGGW 031949
MTRJDN
METAR KJDN 031948Z AUTO 01012G19KT 24/06 A2981 RMK AO1 SLP077
T02440056





000
SAUS45 KGGW 031849
MTRJDN
METAR KJDN 031848Z AUTO 01010KT 24/05 A2983 RMK AO1 SLP085 T02390050





000
SAUS45 KGGW 031749
MTRJDN
METAR KJDN 031748Z AUTO 35011G19KT 24/04 A2982 RMK AO1 SLP080
T02440044 10244 20122 55011





000
SAUS45 KGGW 031749
MTRJDN
METAR KJDN 031748Z AUTO 35011G19KT 24/04 A2982 RMK AO1 SLP080
T02440044 10244 20122 55011





000
SAUS45 KGGW 031649
MTRJDN
METAR KJDN 031648Z AUTO 36014KT 23/04 A2982 RMK AO1 SLP078 T02280039





000
SAUS45 KGGW 031649
MTRJDN
METAR KJDN 031648Z AUTO 36014KT 23/04 A2982 RMK AO1 SLP078 T02280039





000
SAUS45 KGGW 031549
MTRJDN
METAR KJDN 031548Z AUTO 35011KT 20/04 A2984 RMK AO1 PRESFR SLP093
T02000039





000
SAUS45 KGGW 031449
MTRJDN
METAR KJDN 031448Z AUTO 32007KT 19/04 A2986 RMK AO1 SLP098 T01890039
51026





000
SAUS45 KGGW 031449
MTRJDN
METAR KJDN 031448Z AUTO 32007KT 19/04 A2986 RMK AO1 SLP098 T01890039
51026





000
SAUS45 KGGW 031349
MTRJDN
METAR KJDN 031348Z AUTO 29011KT 17/04 A2985 RMK AO1 SLP095 T01720039





000
SAUS45 KGGW 031349
MTRJDN
METAR KJDN 031348Z AUTO 29011KT 17/04 A2985 RMK AO1 SLP095 T01720039





000
SAUS45 KGGW 031249
MTRJDN
METAR KJDN 031248Z AUTO 31006KT 12/03 A2979 RMK AO1 SLP075 T01220028





000
SAUS45 KGGW 031149
MTRJDN
METAR KJDN 031148Z AUTO 36003KT 17/04 A2977 RMK AO1 SLP062 T01670039
10250 20161 51017





000
SAUS45 KGGW 031149
MTRJDN
METAR KJDN 031148Z AUTO 36003KT 17/04 A2977 RMK AO1 SLP062 T01670039
10250 20161 51017





000
SAUS45 KGGW 031049
MTRJDN
METAR KJDN 031048Z AUTO 02010KT 18/03 A2975 RMK AO1 SLP052 T01830033





000
SAUS45 KGGW 030949
MTRJDN
METAR KJDN 030948Z AUTO 01020G26KT 20/03 A2974 RMK AO1 PK WND
36035/0853 SLP045 T02000028





000
SAUS45 KGGW 030849
MTRJDN
METAR KJDN 030848Z AUTO 35020G30KT 21/02 A2972 RMK AO1 PK WND
01030/0844 SLP038 T02110022 53010





000
SAUS45 KGGW 030849
MTRJDN
METAR KJDN 030848Z AUTO 35020G30KT 21/02 A2972 RMK AO1 PK WND
01030/0844 SLP038 T02110022 53010





000
SAUS45 KGGW 030749
MTRJDN
METAR KJDN 030748Z AUTO 35021G31KT 22/03 A2972 RMK AO1 PK WND
34033/0728 SLP039 T02170028





000
SAUS45 KGGW 030749
MTRJDN
METAR KJDN 030748Z AUTO 35021G31KT 22/03 A2972 RMK AO1 PK WND
34033/0728 SLP039 T02170028





000
SAUS45 KGGW 030649
MTRJDN
METAR KJDN 030648Z AUTO 35024G32KT 23/03 A2968 RMK AO1 PK WND
36032/0648 SLP024 T02280033 403780078





000
SAUS45 KGGW 030649
MTRJDN
METAR KJDN 030648Z AUTO 35024G32KT 23/03 A2968 RMK AO1 PK WND
36032/0648 SLP024 T02280033 403780078





000
SAUS45 KGGW 030549
MTRJDN
METAR KJDN 030548Z AUTO 36010KT 24/04 A2968 RMK AO1 SLP025 T02440044
10344 20194 53018





000
SAUS45 KGGW 030449
MTRJDN
METAR KJDN 030448Z AUTO 35016G23KT 26/05 A2966 RMK AO1 SLP018
T02610050





000
SAUS45 KGGW 030349
MTRJDN
METAR KJDN 030348Z AUTO 29004KT 21/04 A2964 RMK AO1 SLP019 T02060039





000
SAUS45 KGGW 030249
MTRJDN
METAR KJDN 030248Z AUTO 00000KT 22/04 A2963 RMK AO1 SLP018 T02170039
53003





000
SAUS45 KGGW 030149
MTRJDN
METAR KJDN 030148Z AUTO 07003KT 27/04 A2962 RMK AO1 SLP019 T02720039





000
SAUS45 KGGW 030049
MTRJDN
METAR KJDN 030048Z AUTO 03006KT 31/04 A2962 RMK AO1 SLP019 T03060044





000
SAUS45 KGGW 030049
MTRJDN
METAR KJDN 030048Z AUTO 03006KT 31/04 A2962 RMK AO1 SLP019 T03060044





000
SAUS45 KGGW 022349
MTRJDN
METAR KJDN 022348Z AUTO 34010KT 34/02 A2962 RMK AO1 SLP014 T03440022
10378 20344 55008





000
SAUS45 KGGW 022349
MTRJDN
METAR KJDN 022348Z AUTO 34010KT 34/02 A2962 RMK AO1 SLP014 T03440022
10378 20344 55008





000
SAUS45 KGGW 022249
MTRJDN
METAR KJDN 022248Z AUTO 30013KT 37/02 A2961 RMK AO1 SLP009 T03720017





000
SAUS45 KGGW 022149
MTRJDN
METAR KJDN 022148Z AUTO 26007KT 36/01 A2962 RMK AO1 SLP012 T03610011





000
SAUS45 KGGW 022149
MTRJDN
METAR KJDN 022148Z AUTO 26007KT 36/01 A2962 RMK AO1 SLP012 T03610011





000
SAUS45 KGGW 022049
MTRJDN
METAR KJDN 022048Z AUTO 23016G24KT 36/02 A2965 RMK AO1 SLP021
T03610017 58007





000
SAUS45 KGGW 021949
MTRJDN
METAR KJDN 021948Z AUTO 23013G17KT 36/02 A2966 RMK AO1 SLP025
T03610017





000
SAUS45 KGGW 021849
MTRJDN
METAR KJDN 021848Z AUTO 23013G16KT 36/01 A2967 RMK AO1 SLP029
T03610006





000
SAUS45 KGGW 021849
MTRJDN
METAR KJDN 021848Z AUTO 23013G16KT 36/01 A2967 RMK AO1 SLP029
T03610006





000
SAUS45 KGGW 021749
MTRJDN
METAR KJDN 021748Z AUTO 25005KT 36/M02 A2967 RMK AO1 SLP028
T03561017 10356 20078 56010





000
SAUS45 KGGW 021749
MTRJDN
METAR KJDN 021748Z AUTO 25005KT 36/M02 A2967 RMK AO1 SLP028
T03561017 10356 20078 56010





000
SAUS45 KGGW 021652
MTRJDN
METAR KJDN 021648Z AUTO 19004KT 33/01 A2968 RMK AO1 SLP032 T03330011





000
SAUS45 KGGW 021552
MTRJDN
METAR KJDN 021548Z AUTO 29003KT 28/04 A2969 RMK AO1 SLP034 T02780039





000
SAUS45 KGGW 021449
MTRJDN
METAR KJDN 021448Z AUTO 30003KT 21/03 A2970 RMK AO1 SLP043 T02060028
50002





000
SAUS45 KGGW 021349
MTRJDN
METAR KJDN 021348Z AUTO 28003KT 12/02 A2971 RMK AO1 SLP054 T01170022





000
SAUS45 KGGW 021349
MTRJDN
METAR KJDN 021348Z AUTO 28003KT 12/02 A2971 RMK AO1 SLP054 T01170022





000
SAUS45 KGGW 021249
MTRJDN
METAR KJDN 021248Z AUTO 00000KT 09/02 A2970 RMK AO1 SLP047 T00890017





000
SAUS45 KGGW 021149
MTRJDN
METAR KJDN 021148Z AUTO 00000KT 09/02 A2969 RMK AO1 SLP042 T00940022
10133 20089 56014





000
SAUS45 KGGW 021149
MTRJDN
METAR KJDN 021148Z AUTO 00000KT 09/02 A2969 RMK AO1 SLP042 T00940022
10133 20089 56014





000
SAUS45 KGGW 021049
MTRJDN
METAR KJDN 021048Z AUTO 00000KT 10/02 A2970 RMK AO1 SLP044 T01000017





000
SAUS45 KGGW 020949
MTRJDN
METAR KJDN 020948Z AUTO 00000KT 11/02 A2972 RMK AO1 SLP052 T01110017





000
SAUS45 KGGW 020849
MTRJDN
METAR KJDN 020848Z AUTO 00000KT 10/03 A2974 RMK AO1 SLP056 T01000028
58014





000
SAUS45 KGGW 020849
MTRJDN
METAR KJDN 020848Z AUTO 00000KT 10/03 A2974 RMK AO1 SLP056 T01000028
58014





000
SAUS45 KGGW 020749
MTRJDN
METAR KJDN 020748Z AUTO 00000KT 11/01 A2976 RMK AO1 SLP065 T01060011





000
SAUS45 KGGW 020749
MTRJDN
METAR KJDN 020748Z AUTO 00000KT 11/01 A2976 RMK AO1 SLP065 T01060011





000
SAUS45 KGGW 020649
MTRJDN
METAR KJDN 020648Z AUTO 00000KT 12/02 A2977 RMK AO1 SLP068 T01170017
403280061





000
SAUS45 KGGW 020649
MTRJDN
METAR KJDN 020648Z AUTO 00000KT 12/02 A2977 RMK AO1 SLP068 T01170017
403280061





000
SAUS45 KGGW 020549
MTRJDN
METAR KJDN 020548Z AUTO 00000KT 13/01 A2978 RMK AO1 SLP071 T01330011
10317 20133 50001





000
SAUS45 KGGW 020549
MTRJDN
METAR KJDN 020548Z AUTO 00000KT 13/01 A2978 RMK AO1 SLP071 T01330011
10317 20133 50001





000
SAUS45 KGGW 020449
MTRJDN
METAR KJDN 020448Z AUTO 00000KT 14/01 A2978 RMK AO1 SLP072 T01440011





000
SAUS45 KGGW 020349
MTRJDN
METAR KJDN 020348Z AUTO 04003KT 19/01 A2978 RMK AO1 SLP071 T01940006





000
SAUS45 KGGW 020249
MTRJDN
METAR KJDN 020248Z AUTO 04003KT 21/01 A2978 RMK AO1 SLP075 T02110011
53006





000
SAUS45 KGGW 020149
MTRJDN
METAR KJDN 020148Z AUTO 04008KT 23/02 A2976 RMK AO1 SLP071 T02330017





000
SAUS45 KGGW 020149
MTRJDN
METAR KJDN 020148Z AUTO 04008KT 23/02 A2976 RMK AO1 SLP071 T02330017





000
SAUS45 KGGW 020049
MTRJDN
METAR KJDN 020048Z AUTO 02005KT 30/02 A2975 RMK AO1 SLP066 T03000022





000
SAUS45 KGGW 012349
MTRJDN
METAR KJDN 012348Z AUTO VRB03KT 32/01 A2976 RMK AO1 SLP066 T03170011
10328 20283 56007





000
SAUS45 KGGW 012249
MTRJDN
METAR KJDN 012248Z AUTO 00000KT 32/01 A2976 RMK AO1 SLP069 T03170006





000
SAUS45 KGGW 012249
MTRJDN
METAR KJDN 012248Z AUTO 00000KT 32/01 A2976 RMK AO1 SLP069 T03170006





000
SAUS45 KGGW 012150
MTRJDN
METAR KJDN 012148Z AUTO 23008KT 32/01 A2977 RMK AO1 SLP071 T03170006





000
SAUS45 KGGW 012150
MTRJDN
METAR KJDN 012148Z AUTO 23008KT 32/01 A2977 RMK AO1 SLP071 T03170006





000
SAUS45 KGGW 012049
MTRJDN
METAR KJDN 012048Z AUTO 28009KT 32/01 A2978 RMK AO1 SLP074 T03170011
56010





000
SAUS45 KGGW 011949
MTRJDN
METAR KJDN 011948Z AUTO 30005G16KT 30/03 A2979 RMK AO1 SLP079
T03000028





000
SAUS45 KGGW 011949
MTRJDN
METAR KJDN 011948Z AUTO 30005G16KT 30/03 A2979 RMK AO1 SLP079
T03000028





000
SAUS45 KGGW 011849
MTRJDN
METAR KJDN 011848Z AUTO 27009KT 29/03 A2980 RMK AO1 SLP081 T02940028





000
SAUS45 KGGW 011749
MTRJDN
METAR KJDN 011748Z AUTO 30012G21KT 28/03 A2981 RMK AO1 SLP084
T02830033 10283 20061 53000





000
SAUS45 KGGW 011749
MTRJDN
METAR KJDN 011748Z AUTO 30012G21KT 28/03 A2981 RMK AO1 SLP084
T02830033 10283 20061 53000





000
SAUS45 KGGW 011649
MTRJDN
METAR KJDN 011648Z AUTO 30012G18KT 28/03 A2981 RMK AO1 SLP081
T02780033





000
SAUS45 KGGW 011649
MTRJDN
METAR KJDN 011648Z AUTO 30012G18KT 28/03 A2981 RMK AO1 SLP081
T02780033





000
SAUS45 KGGW 011549
MTRJDN
METAR KJDN 011548Z AUTO 28005KT 24/04 A2981 RMK AO1 SLP083 T02440039





000
SAUS45 KGGW 011449
MTRJDN
METAR KJDN 011448Z AUTO 00000KT 16/04 A2981 RMK AO1 SLP092 T01560039
50001





000
SAUS45 KGGW 011349
MTRJDN
METAR KJDN 011348Z AUTO 28005KT 11/02 A2982 RMK AO1 SLP095 T01060017





000
SAUS45 KGGW 011349
MTRJDN
METAR KJDN 011348Z AUTO 28005KT 11/02 A2982 RMK AO1 SLP095 T01060017





000
SAUS45 KGGW 011249
MTRJDN
METAR KJDN 011248Z AUTO 00000KT 07/01 A2981 RMK AO1 SLP093 T00670011





000
SAUS45 KGGW 011249
MTRJDN
METAR KJDN 011248Z AUTO 00000KT 07/01 A2981 RMK AO1 SLP093 T00670011





000
SAUS45 KGGW 011149
MTRJDN
METAR KJDN 011148Z AUTO 00000KT 07/02 A2981 RMK AO1 SLP090 T00670017
10122 20061 58006





000
SAUS45 KGGW 011149
MTRJDN
METAR KJDN 011148Z AUTO 00000KT 07/02 A2981 RMK AO1 SLP090 T00670017
10122 20061 58006





000
SAUS45 KGGW 011049
MTRJDN
METAR KJDN 011048Z AUTO 28003KT 07/01 A2982 RMK AO1 SLP094 T00670011





000
SAUS45 KGGW 011049
MTRJDN
METAR KJDN 011048Z AUTO 28003KT 07/01 A2982 RMK AO1 SLP094 T00670011





000
SAUS45 KGGW 010949
MTRJDN
METAR KJDN 010948Z AUTO 28003KT 07/01 A2982 RMK AO1 SLP096 T00720011





000
SAUS45 KGGW 010949
MTRJDN
METAR KJDN 010948Z AUTO 28003KT 07/01 A2982 RMK AO1 SLP096 T00720011





000
SAUS45 KGGW 010849
MTRJDN
METAR KJDN 010848Z AUTO 31003KT 08/02 A2983 RMK AO1 SLP096 T00780017
58016





000
SAUS45 KGGW 010849
MTRJDN
METAR KJDN 010848Z AUTO 31003KT 08/02 A2983 RMK AO1 SLP096 T00780017
58016





000
SAUS45 KGGW 010749
MTRJDN
METAR KJDN 010748Z AUTO 26003KT 08/03 A2984 RMK AO1 SLP101 T00830028





000
SAUS45 KGGW 010649
MTRJDN
METAR KJDN 010648Z AUTO 00000KT 11/02 A2986 RMK AO1 SLP107 T01060022
402610083





000
SAUS45 KGGW 010649
MTRJDN
METAR KJDN 010648Z AUTO 00000KT 11/02 A2986 RMK AO1 SLP107 T01060022
402610083





    US Dept of Commerce
    National Oceanic and Atmospheric Administration
    National Weather Service
    1325 East West Highway
    Silver Spring, MD 20910
    Page Author: NWS Internet Services Team
Disclaimer
Information Quality
Credits
Glossary
Privacy Policy
Freedom of Information Act (FOIA)
About Us
Career Opportunities